Time;durP1;ratioP1;P1;durP2;ratioP2;P2;SDS_P1;SDS_P2;PMS_P1;PMS_P2;Temp;Humidity;BMP_temperature;BMP_pressure;BME280_temperature;BME280_humidity;BME280_pressure;Samples;Min_cycle;Max_cycle;Signal;HPM_P1;HPM_P2
2021/10/21 00:01:51;;;;;;;3.53;2.90;;;;;;;;;;5130199;27;21511;-81
2021/10/21 00:04:18;;;;;;;5.00;3.10;;;;;;;;;;5132596;27;20787;-79
2021/10/21 00:06:45;;;;;;;3.00;2.67;;;;;;;;;;5114965;27;20466;-79
2021/10/21 00:09:13;;;;;;;5.27;2.70;;;;;;;;;;5099413;27;20418;-81
2021/10/21 00:11:42;;;;;;;4.10;2.63;;;;;;;;;;5106346;28;20785;-81
2021/10/21 00:14:09;;;;;;;3.20;2.90;;;;;;;;;;5118389;27;20480;-81
2021/10/21 00:16:36;;;;;;;4.43;2.47;;;;;;;;;;5132040;27;20447;-81
2021/10/21 00:19:03;;;;;;;6.60;4.00;;;;;;;;;;5124810;27;20464;-80
2021/10/21 00:21:31;;;;;;;4.20;2.53;;;;;;;;;;5111041;27;20456;-80
2021/10/21 00:24:00;;;;;;;5.77;2.77;;;;;;;;;;5099858;28;20437;-80
2021/10/21 00:26:27;;;;;;;4.57;3.07;;;;;;;;;;5104448;27;20427;-80
2021/10/21 00:28:56;;;;;;;4.70;2.70;;;;;;;;;;5104330;27;20792;-80
2021/10/21 00:31:23;;;;;;;5.10;2.83;;;;;;;;;;5122111;27;20456;-78
2021/10/21 00:33:51;;;;;;;3.60;2.90;;;;;;;;;;5131652;27;20634;-80
2021/10/21 00:36:18;;;;;;;5.20;2.87;;;;;;;;;;5119516;27;20458;-81
2021/10/21 00:38:47;;;;;;;3.40;2.70;;;;;;;;;;5102353;28;20764;-79
2021/10/21 00:41:14;;;;;;;3.77;2.40;;;;;;;;;;5102225;28;20908;-81
2021/10/21 00:43:42;;;;;;;4.67;3.20;;;;;;;;;;5110637;28;20787;-80
2021/10/21 00:46:12;;;;;;;3.63;2.73;;;;;;;;;;5111127;28;20443;-80
2021/10/21 00:48:40;;;;;;;4.57;3.03;;;;;;;;;;5112638;28;20440;-81
2021/10/21 00:51:09;;;;;;;3.60;2.70;;;;;;;;;;5108685;27;20478;-80
2021/10/21 00:53:36;;;;;;;4.53;2.97;;;;;;;;;;5113151;27;20487;-81
2021/10/21 00:56:04;;;;;;;4.60;2.73;;;;;;;;;;5112283;28;20444;-81
2021/10/21 00:58:32;;;;;;;3.10;2.47;;;;;;;;;;5106895;27;20456;-80
2021/10/21 01:00:59;;;;;;;3.07;2.77;;;;;;;;;;5103658;27;20497;-79
2021/10/21 01:03:28;;;;;;;3.20;2.57;;;;;;;;;;5098211;28;20445;-78
2021/10/21 01:05:55;;;;;;;3.00;2.27;;;;;;;;;;5110147;28;20453;-82
2021/10/21 01:08:23;;;;;;;3.33;2.17;;;;;;;;;;5112412;27;20461;-81
2021/10/21 01:10:51;;;;;;;3.10;1.87;;;;;;;;;;5132271;27;20966;-80
2021/10/21 01:13:19;;;;;;;2.50;2.03;;;;;;;;;;5131007;27;20478;-80
2021/10/21 01:15:46;;;;;;;2.90;1.73;;;;;;;;;;5115056;27;20926;-80
2021/10/21 01:18:13;;;;;;;2.77;1.90;;;;;;;;;;5133161;27;20438;-81
2021/10/21 01:20:42;;;;;;;2.03;1.77;;;;;;;;;;5124420;27;20439;-81
2021/10/21 01:23:09;;;;;;;2.30;1.50;;;;;;;;;;5097621;28;20485;-80
2021/10/21 01:25:36;;;;;;;3.87;2.03;;;;;;;;;;5093706;28;20967;-81
2021/10/21 01:28:04;;;;;;;1.93;1.50;;;;;;;;;;5096603;27;20450;-82
2021/10/21 01:30:32;;;;;;;1.67;1.20;;;;;;;;;;5112509;27;20834;-80
2021/10/21 01:32:59;;;;;;;1.93;1.10;;;;;;;;;;5130835;27;20489;-81
2021/10/21 01:35:26;;;;;;;1.60;1.47;;;;;;;;;;5124268;27;20802;-80
2021/10/21 01:37:55;;;;;;;3.50;1.60;;;;;;;;;;5116037;27;20467;-82
2021/10/21 01:40:23;;;;;;;6.33;1.70;;;;;;;;;;5094923;27;20533;-81
2021/10/21 01:42:50;;;;;;;2.80;1.90;;;;;;;;;;5106440;28;20480;-81
2021/10/21 01:45:18;;;;;;;2.97;2.03;;;;;;;;;;5110222;28;20798;-83
2021/10/21 01:47:45;;;;;;;2.43;1.40;;;;;;;;;;5111300;27;20870;-82
2021/10/21 01:50:13;;;;;;;4.30;1.60;;;;;;;;;;5128375;27;20818;-81
2021/10/21 01:52:40;;;;;;;4.37;1.73;;;;;;;;;;5112819;27;20998;-82
2021/10/21 01:55:09;;;;;;;2.83;1.20;;;;;;;;;;5118626;27;20460;-82
2021/10/21 01:57:37;;;;;;;3.87;1.33;;;;;;;;;;5132666;27;20441;-82
2021/10/21 02:00:04;;;;;;;4.17;1.50;;;;;;;;;;5112339;27;20497;-82
2021/10/21 02:02:31;;;;;;;5.90;2.70;;;;;;;;;;5092492;28;20465;-81
2021/10/21 02:04:59;;;;;;;5.93;1.40;;;;;;;;;;5101887;27;20456;-82
2021/10/21 02:07:26;;;;;;;3.10;1.40;;;;;;;;;;5119291;27;20517;-81
2021/10/21 02:09:53;;;;;;;2.90;1.63;;;;;;;;;;5130237;27;21096;-82
2021/10/21 02:12:22;;;;;;;3.10;1.57;;;;;;;;;;5119110;27;20474;-81
2021/10/21 02:14:49;;;;;;;3.83;1.33;;;;;;;;;;5116678;27;20458;-81
2021/10/21 02:17:16;;;;;;;3.13;1.20;;;;;;;;;;5111404;28;20438;-82
2021/10/21 02:19:44;;;;;;;3.57;1.37;;;;;;;;;;5109218;28;20458;-82
2021/10/21 02:22:11;;;;;;;2.50;1.43;;;;;;;;;;5101594;28;20523;-82
2021/10/21 02:24:38;;;;;;;3.50;1.40;;;;;;;;;;5096582;28;20473;-80
2021/10/21 02:27:05;;;;;;;4.10;1.63;;;;;;;;;;5107046;28;20442;-81
2021/10/21 02:29:34;;;;;;;5.47;1.30;;;;;;;;;;5107945;28;20434;-82
2021/10/21 02:32:01;;;;;;;9.50;1.90;;;;;;;;;;5107862;28;20456;-82
2021/10/21 02:34:29;;;;;;;3.83;1.43;;;;;;;;;;5129727;28;20842;-80
2021/10/21 02:36:56;;;;;;;3.03;1.97;;;;;;;;;;5114633;28;20458;-82
2021/10/21 02:39:23;;;;;;;2.67;1.30;;;;;;;;;;5102223;28;20464;-80
2021/10/21 02:41:50;;;;;;;6.33;1.47;;;;;;;;;;5099173;28;20544;-81
2021/10/21 02:44:18;;;;;;;4.00;1.37;;;;;;;;;;5108674;28;20461;-82
2021/10/21 02:46:46;;;;;;;2.17;1.20;;;;;;;;;;5108259;28;20437;-81
2021/10/21 02:49:14;;;;;;;2.20;1.20;;;;;;;;;;5112588;28;20548;-81
2021/10/21 02:51:41;;;;;;;4.40;1.83;;;;;;;;;;5127350;28;20444;-81
2021/10/21 02:54:12;;;;;;;2.60;1.20;;;;;;;;;;5106337;28;21007;-80
2021/10/21 02:56:39;;;;;;;2.70;1.17;;;;;;;;;;5099657;28;20454;-82
2021/10/21 02:59:06;;;;;;;2.80;1.20;;;;;;;;;;5099691;28;20455;-82
2021/10/21 03:01:34;;;;;;;3.60;1.10;;;;;;;;;;5112577;28;20455;-82
2021/10/21 03:04:03;;;;;;;2.10;1.20;;;;;;;;;;5115319;28;20504;-83
2021/10/21 03:06:30;;;;;;;8.30;1.30;;;;;;;;;;5128445;28;20431;-81
2021/10/21 03:08:57;;;;;;;3.77;1.63;;;;;;;;;;5114974;28;20459;-80
2021/10/21 03:11:26;;;;;;;4.40;1.43;;;;;;;;;;5103549;28;20448;-81
2021/10/21 03:13:53;;;;;;;3.30;1.60;;;;;;;;;;5110713;28;20492;-79
2021/10/21 03:16:20;;;;;;;4.07;1.30;;;;;;;;;;5117448;28;20932;-82
2021/10/21 03:18:47;;;;;;;5.80;1.63;;;;;;;;;;5101750;28;20433;-81
2021/10/21 03:21:16;;;;;;;1.97;1.20;;;;;;;;;;5109324;28;20444;-81
2021/10/21 03:23:43;;;;;;;5.67;1.50;;;;;;;;;;5112208;28;20824;-81
2021/10/21 03:26:11;;;;;;;5.13;1.40;;;;;;;;;;5106513;27;20443;-81
2021/10/21 03:28:38;;;;;;;10.50;2.07;;;;;;;;;;5118537;27;20447;-81
2021/10/21 03:31:06;;;;;;;4.73;1.10;;;;;;;;;;5121509;27;20441;-81
2021/10/21 03:33:33;;;;;;;4.93;1.60;;;;;;;;;;5102934;27;20480;-80
2021/10/21 03:36:00;;;;;;;5.33;1.40;;;;;;;;;;5102487;28;20435;-81
2021/10/21 03:38:29;;;;;;;3.37;1.30;;;;;;;;;;5091509;28;20820;-80
2021/10/21 03:40:56;;;;;;;5.07;1.60;;;;;;;;;;5105832;27;20469;-81
2021/10/21 03:43:24;;;;;;;3.40;1.57;;;;;;;;;;5132971;27;20468;-82
2021/10/21 03:45:51;;;;;;;2.43;1.30;;;;;;;;;;5133515;27;20791;-80
2021/10/21 03:48:18;;;;;;;3.10;1.20;;;;;;;;;;5122875;27;20466;-80
2021/10/21 03:50:46;;;;;;;2.40;0.97;;;;;;;;;;5126289;27;20501;-80
2021/10/21 03:53:13;;;;;;;2.70;1.40;;;;;;;;;;5134528;27;20490;-80
2021/10/21 03:55:42;;;;;;;3.00;0.97;;;;;;;;;;5108704;27;20770;-81
2021/10/21 03:58:10;;;;;;;3.10;1.40;;;;;;;;;;5099846;27;20982;-80
2021/10/21 04:00:37;;;;;;;3.10;1.30;;;;;;;;;;5091052;28;20443;-80
2021/10/21 04:03:04;;;;;;;4.77;1.10;;;;;;;;;;5102503;27;20879;-81
2021/10/21 04:05:32;;;;;;;4.63;1.30;;;;;;;;;;5118891;27;20461;-81
2021/10/21 04:07:59;;;;;;;3.37;1.10;;;;;;;;;;5132863;27;20443;-82
2021/10/21 04:10:26;;;;;;;3.50;1.90;;;;;;;;;;5113274;27;20451;-81
2021/10/21 04:12:55;;;;;;;2.53;1.13;;;;;;;;;;5112759;27;20506;-81
2021/10/21 04:15:25;;;;;;;2.60;1.20;;;;;;;;;;5134343;27;20439;-81
2021/10/21 04:17:52;;;;;;;1.70;1.07;;;;;;;;;;5106398;27;20497;-81
2021/10/21 04:20:20;;;;;;;2.90;1.00;;;;;;;;;;5099981;28;20453;-81
2021/10/21 04:22:47;;;;;;;5.00;1.83;;;;;;;;;;5109217;28;20530;-81
2021/10/21 04:25:14;;;;;;;4.73;1.30;;;;;;;;;;5114502;27;20650;-80
2021/10/21 04:27:43;;;;;;;3.27;1.20;;;;;;;;;;5131899;27;20440;-80
2021/10/21 04:30:12;;;;;;;3.77;1.10;;;;;;;;;;5128605;27;20451;-82
2021/10/21 04:32:40;;;;;;;1.90;1.33;;;;;;;;;;5123036;27;20434;-81
2021/10/21 04:35:08;;;;;;;5.43;1.10;;;;;;;;;;5101238;28;20487;-80
2021/10/21 04:37:35;;;;;;;4.50;1.30;;;;;;;;;;5107584;27;20941;-80
2021/10/21 04:40:02;;;;;;;2.03;1.20;;;;;;;;;;5112520;28;20440;-82
2021/10/21 04:42:29;;;;;;;1.30;0.90;;;;;;;;;;5122664;27;20466;-81
2021/10/21 04:44:57;;;;;;;2.80;0.97;;;;;;;;;;5133124;27;20441;-81
2021/10/21 04:47:26;;;;;;;2.70;1.17;;;;;;;;;;5122662;27;20546;-80
2021/10/21 04:49:53;;;;;;;6.03;1.40;;;;;;;;;;5098068;27;20807;-81
2021/10/21 04:52:20;;;;;;;1.13;0.80;;;;;;;;;;5101367;27;20479;-81
2021/10/21 04:54:47;;;;;;;3.30;1.20;;;;;;;;;;5112353;28;20482;-80
2021/10/21 04:57:15;;;;;;;1.97;0.80;;;;;;;;;;5120651;27;20455;-80
2021/10/21 04:59:42;;;;;;;0.97;0.73;;;;;;;;;;5126837;27;20611;-80
2021/10/21 05:02:15;;;;;;;1.30;1.07;;;;;;;;;;5108089;27;20456;-80
2021/10/21 05:04:44;;;;;;;2.77;1.00;;;;;;;;;;5103642;27;20470;-80
2021/10/21 05:07:11;;;;;;;2.00;1.00;;;;;;;;;;5100872;28;20475;-82
2021/10/21 05:09:38;;;;;;;1.63;0.90;;;;;;;;;;5109099;28;20932;-81
2021/10/21 05:12:06;;;;;;;1.87;0.80;;;;;;;;;;5123578;27;20488;-80
2021/10/21 05:14:33;;;;;;;3.20;1.20;;;;;;;;;;5132154;27;20485;-81
2021/10/21 05:17:01;;;;;;;1.77;1.23;;;;;;;;;;5123306;27;20886;-82
2021/10/21 05:19:28;;;;;;;1.27;0.90;;;;;;;;;;5114610;27;20456;-82
2021/10/21 05:21:57;;;;;;;1.00;0.80;;;;;;;;;;5104668;28;20454;-81
2021/10/21 05:24:24;;;;;;;1.53;1.00;;;;;;;;;;5103636;28;20478;-81
2021/10/21 05:26:51;;;;;;;2.10;1.13;;;;;;;;;;5111207;28;20432;-82
2021/10/21 05:29:20;;;;;;;1.67;1.00;;;;;;;;;;5121100;27;20476;-82
2021/10/21 05:31:47;;;;;;;2.80;1.33;;;;;;;;;;5133240;27;20578;-82
2021/10/21 05:34:14;;;;;;;2.43;0.93;;;;;;;;;;5125998;27;20489;-83
2021/10/21 05:36:42;;;;;;;1.63;0.90;;;;;;;;;;5111879;28;20805;-81
2021/10/21 05:39:10;;;;;;;2.07;1.07;;;;;;;;;;5099989;27;20438;-82
2021/10/21 05:41:38;;;;;;;1.10;0.80;;;;;;;;;;5096438;28;20439;-82
2021/10/21 05:44:05;;;;;;;2.50;0.80;;;;;;;;;;5092101;28;20449;-81
2021/10/21 05:46:32;;;;;;;1.33;1.10;;;;;;;;;;5102552;27;20464;-81
2021/10/21 05:49:01;;;;;;;2.03;0.80;;;;;;;;;;5129837;27;20450;-82
2021/10/21 05:51:28;;;;;;;2.10;1.10;;;;;;;;;;5126750;27;20553;-80
2021/10/21 05:53:55;;;;;;;1.00;0.87;;;;;;;;;;5117205;27;20489;-82
2021/10/21 05:56:24;;;;;;;1.97;0.90;;;;;;;;;;5134263;27;20442;-81
2021/10/21 05:58:51;;;;;;;1.30;0.97;;;;;;;;;;5124825;27;20447;-80
2021/10/21 06:01:19;;;;;;;1.67;1.23;;;;;;;;;;5098437;27;21005;-82
2021/10/21 06:03:46;;;;;;;1.20;0.80;;;;;;;;;;5102307;27;20476;-83
2021/10/21 06:06:13;;;;;;;3.53;1.23;;;;;;;;;;5105824;27;21191;-82
2021/10/21 06:08:41;;;;;;;3.33;1.43;;;;;;;;;;5112705;27;20464;-81
2021/10/21 06:11:08;;;;;;;2.30;1.03;;;;;;;;;;5130423;27;20453;-81
2021/10/21 06:13:37;;;;;;;4.27;1.70;;;;;;;;;;5121654;27;20833;-82
2021/10/21 06:16:05;;;;;;;2.53;1.20;;;;;;;;;;5125703;27;20458;-80
2021/10/21 06:18:32;;;;;;;5.30;1.97;;;;;;;;;;5132231;27;20441;-83
2021/10/21 06:21:01;;;;;;;6.87;1.60;;;;;;;;;;5113180;27;20448;-85
2021/10/21 06:23:29;;;;;;;2.67;1.13;;;;;;;;;;5097578;28;20926;-83
2021/10/21 06:25:56;;;;;;;3.27;1.60;;;;;;;;;;5102000;28;20441;-86
2021/10/21 06:28:23;;;;;;;3.23;1.20;;;;;;;;;;5120318;27;20453;-84
2021/10/21 06:30:52;;;;;;;3.53;1.50;;;;;;;;;;5129383;27;20460;-85
2021/10/21 06:33:19;;;;;;;6.70;2.20;;;;;;;;;;5113866;28;20481;-86
2021/10/21 06:35:47;;;;;;;10.30;2.17;;;;;;;;;;5113895;28;20474;-82
2021/10/21 06:38:15;;;;;;;5.13;1.60;;;;;;;;;;5097840;28;20441;-83
2021/10/21 06:40:43;;;;;;;5.80;1.77;;;;;;;;;;5100892;28;20468;-83
2021/10/21 06:43:10;;;;;;;4.50;1.83;;;;;;;;;;5118726;28;20477;-85
2021/10/21 06:45:38;;;;;;;5.20;1.73;;;;;;;;;;5129192;28;20445;-84
2021/10/21 06:48:06;;;;;;;7.90;2.00;;;;;;;;;;5127047;28;20446;-81
2021/10/21 06:50:34;;;;;;;4.37;2.10;;;;;;;;;;5108813;28;21042;-81
2021/10/21 06:53:01;;;;;;;7.10;1.70;;;;;;;;;;5100873;28;20450;-82
2021/10/21 06:55:29;;;;;;;5.10;2.57;;;;;;;;;;5106323;28;20568;-83
2021/10/21 06:57:58;;;;;;;9.67;2.63;;;;;;;;;;5126046;27;20962;-86
2021/10/21 07:00:25;;;;;;;5.57;2.10;;;;;;;;;;5130449;27;20445;-86
2021/10/21 07:02:53;;;;;;;9.13;2.80;;;;;;;;;;5116999;27;21000;-83
2021/10/21 07:05:23;;;;;;;6.40;1.97;;;;;;;;;;5128524;27;20458;-90
2021/10/21 07:07:51;;;;;;;10.23;2.90;;;;;;;;;;5111719;27;21062;-83
2021/10/21 07:10:18;;;;;;;2.87;2.10;;;;;;;;;;5096602;27;20947;-83
2021/10/21 07:12:46;;;;;;;13.17;3.33;;;;;;;;;;5103765;28;20469;-84
2021/10/21 07:15:15;;;;;;;16.27;3.77;;;;;;;;;;5108014;28;20493;-84
2021/10/21 07:17:42;;;;;;;7.70;3.10;;;;;;;;;;5108573;28;20560;-84
2021/10/21 07:20:13;;;;;;;10.00;3.10;;;;;;;;;;5110987;28;20784;-88
2021/10/21 07:22:42;;;;;;;5.47;2.47;;;;;;;;;;5110869;28;20458;-88
2021/10/21 07:25:18;;;;;;;8.43;2.93;;;;;;;;;;5107958;28;20445;-90
2021/10/21 07:27:45;;;;;;;6.53;2.30;;;;;;;;;;5097672;27;20472;-90
2021/10/21 07:30:13;;;;;;;7.40;2.20;;;;;;;;;;5118828;27;20455;-87
2021/10/21 07:32:40;;;;;;;4.60;2.00;;;;;;;;;;5128556;27;20842;-86
2021/10/21 07:35:08;;;;;;;7.93;2.10;;;;;;;;;;5115128;27;20814;-86
2021/10/21 07:37:35;;;;;;;11.13;2.97;;;;;;;;;;5126202;27;20438;-87
2021/10/21 07:40:05;;;;;;;8.83;3.03;;;;;;;;;;5108295;27;20511;-86
2021/10/21 07:42:33;;;;;;;7.33;2.40;;;;;;;;;;5100387;28;20434;-83
2021/10/21 07:45:01;;;;;;;7.13;2.53;;;;;;;;;;5106036;28;20460;-84
2021/10/21 07:47:28;;;;;;;4.83;2.50;;;;;;;;;;5112408;27;20449;-84
2021/10/21 07:49:56;;;;;;;11.80;3.20;;;;;;;;;;5110775;28;20441;-84
2021/10/21 07:52:24;;;;;;;10.67;3.17;;;;;;;;;;5107503;27;20560;-82
2021/10/21 07:54:51;;;;;;;8.00;2.50;;;;;;;;;;5077811;28;20494;-85
2021/10/21 07:57:20;;;;;;;6.70;2.93;;;;;;;;;;5062909;28;20435;-84
2021/10/21 07:59:48;;;;;;;10.90;3.00;;;;;;;;;;5060850;28;20482;-83
2021/10/21 08:02:16;;;;;;;5.63;2.00;;;;;;;;;;5050709;28;20452;-82
2021/10/21 08:04:43;;;;;;;13.43;3.87;;;;;;;;;;5053513;28;20473;-82
2021/10/21 08:07:10;;;;;;;12.93;3.03;;;;;;;;;;5071194;28;20440;-83
2021/10/21 08:09:38;;;;;;;11.30;3.27;;;;;;;;;;5075802;28;20474;-85
2021/10/21 08:12:07;;;;;;;12.73;3.83;;;;;;;;;;5065728;28;20806;-84
2021/10/21 08:14:36;;;;;;;7.13;3.07;;;;;;;;;;5060840;28;20589;-84
2021/10/21 08:17:03;;;;;;;14.70;4.10;;;;;;;;;;5062542;28;20457;-83
2021/10/21 08:19:31;;;;;;;5.33;2.73;;;;;;;;;;5074296;28;20815;-83
2021/10/21 08:21:58;;;;;;;11.63;4.37;;;;;;;;;;5083974;28;21094;-83
2021/10/21 08:24:26;;;;;;;11.33;3.30;;;;;;;;;;5086261;28;20460;-84
2021/10/21 08:26:54;;;;;;;11.63;3.57;;;;;;;;;;5072200;28;20556;-82
2021/10/21 08:29:23;;;;;;;17.10;4.37;;;;;;;;;;5060242;28;20463;-81
2021/10/21 08:31:51;;;;;;;12.30;3.83;;;;;;;;;;5066855;28;20487;-82
2021/10/21 08:34:19;;;;;;;11.33;4.50;;;;;;;;;;5091143;28;20818;-84
2021/10/21 08:36:46;;;;;;;12.33;4.87;;;;;;;;;;5088011;28;20431;-82
2021/10/21 08:39:13;;;;;;;9.13;3.60;;;;;;;;;;5075674;28;20541;-81
2021/10/21 08:41:42;;;;;;;13.33;4.83;;;;;;;;;;5082952;28;20776;-83
2021/10/21 08:44:10;;;;;;;7.60;3.00;;;;;;;;;;5069798;28;21082;-84
2021/10/21 08:46:38;;;;;;;10.13;4.10;;;;;;;;;;5071105;28;20432;-81
2021/10/21 08:49:06;;;;;;;6.40;3.63;;;;;;;;;;5068203;28;20434;-84
2021/10/21 08:51:34;;;;;;;10.43;3.20;;;;;;;;;;5058642;28;20453;-84
2021/10/21 08:54:03;;;;;;;10.43;4.47;;;;;;;;;;5090511;28;20550;-83
2021/10/21 08:56:31;;;;;;;12.73;3.40;;;;;;;;;;5106517;27;20479;-82
2021/10/21 08:58:59;;;;;;;10.23;2.80;;;;;;;;;;5117821;27;20927;-80
2021/10/21 09:01:35;;;;;;;5.07;2.23;;;;;;;;;;5108552;28;20435;-83
2021/10/21 09:04:18;;;;;;;11.07;3.23;;;;;;;;;;5120311;27;21603;-81
2021/10/21 09:07:54;;;;;;;11.17;3.80;;;;;;;;;;5108102;27;20460;-85
2021/10/21 09:09:43;;;;;;;6.03;3.40;;;;;;;;;;5133432;27;20487;-81
2021/10/21 09:12:12;;;;;;;4.23;2.80;;;;;;;;;;5113239;27;20458;-81
2021/10/21 09:14:40;;;;;;;10.00;3.70;;;;;;;;;;5098700;28;20482;-82
2021/10/21 09:17:09;;;;;;;6.73;4.00;;;;;;;;;;5104700;27;20854;-83
2021/10/21 09:19:39;;;;;;;8.37;3.13;;;;;;;;;;5104829;27;20453;-81
2021/10/21 09:22:07;;;;;;;5.70;3.37;;;;;;;;;;5111438;27;20442;-83
2021/10/21 09:24:39;;;;;;;7.70;3.50;;;;;;;;;;5107366;27;20497;-84
2021/10/21 09:27:09;;;;;;;5.73;2.33;;;;;;;;;;5107078;27;20986;-82
2021/10/21 09:29:36;;;;;;;4.60;2.70;;;;;;;;;;5103236;27;20473;-81
2021/10/21 09:32:04;;;;;;;10.90;2.30;;;;;;;;;;5102192;28;20434;-82
2021/10/21 09:34:32;;;;;;;6.03;1.80;;;;;;;;;;5112188;27;20509;-84
2021/10/21 09:37:06;;;;;;;6.73;2.73;;;;;;;;;;5108663;28;20450;-80
2021/10/21 09:39:41;;;;;;;7.90;1.73;;;;;;;;;;5114712;27;20453;-81
2021/10/21 09:42:09;;;;;;;5.27;2.40;;;;;;;;;;5127855;27;20458;-84
2021/10/21 09:44:36;;;;;;;4.83;2.20;;;;;;;;;;5098678;28;20475;-80
2021/10/21 09:47:15;;;;;;;6.93;2.67;;;;;;;;;;5099824;28;20436;-82
2021/10/21 09:49:44;;;;;;;7.50;1.87;;;;;;;;;;5108149;27;20847;-83
2021/10/21 09:52:16;;;;;;;4.70;2.40;;;;;;;;;;5117724;27;20840;-84
2021/10/21 09:54:44;;;;;;;4.70;1.80;;;;;;;;;;5109605;28;20484;-84
2021/10/21 09:57:13;;;;;;;8.13;2.07;;;;;;;;;;5121305;27;20476;-81
2021/10/21 09:59:41;;;;;;;6.07;2.00;;;;;;;;;;5098944;28;20421;-84
2021/10/21 10:02:11;;;;;;;7.13;2.63;;;;;;;;;;5099846;28;20815;-80
2021/10/21 10:04:38;;;;;;;8.07;2.67;;;;;;;;;;5107308;28;20490;-80
2021/10/21 10:07:05;;;;;;;9.73;2.47;;;;;;;;;;5102509;27;20457;-80
2021/10/21 10:09:34;;;;;;;6.60;2.03;;;;;;;;;;5119615;27;20451;-82
2021/10/21 10:12:03;;;;;;;4.60;2.00;;;;;;;;;;5123005;27;20446;-79
2021/10/21 10:14:31;;;;;;;5.17;2.37;;;;;;;;;;5098418;28;20547;-85
2021/10/21 10:17:02;;;;;;;4.83;2.20;;;;;;;;;;5095681;28;20510;-82
2021/10/21 10:19:30;;;;;;;6.97;2.03;;;;;;;;;;5104216;28;20446;-81
2021/10/21 10:21:58;;;;;;;6.30;2.17;;;;;;;;;;5112923;27;20458;-82
2021/10/21 10:24:29;;;;;;;7.30;1.90;;;;;;;;;;5106992;28;20468;-82
2021/10/21 10:26:58;;;;;;;6.27;2.00;;;;;;;;;;5088180;28;20455;-77
2021/10/21 10:29:41;;;;;;;6.83;2.27;;;;;;;;;;5097806;27;20463;-80
2021/10/21 10:32:09;;;;;;;5.60;1.90;;;;;;;;;;5093556;28;20527;-81
2021/10/21 10:34:51;;;;;;;7.53;2.20;;;;;;;;;;5116140;28;20485;-77
2021/10/21 10:37:33;;;;;;;11.60;3.23;;;;;;;;;;5126289;28;20437;-78
2021/10/21 10:40:01;;;;;;;5.50;1.90;;;;;;;;;;5110922;28;20530;-82
2021/10/21 10:42:43;;;;;;;4.97;2.00;;;;;;;;;;5109283;28;20443;-79
2021/10/21 10:45:12;;;;;;;11.80;4.60;;;;;;;;;;5102381;28;20827;-82
2021/10/21 10:48:02;;;;;;;7.80;2.23;;;;;;;;;;5109173;28;20436;-79
2021/10/21 10:50:44;;;;;;;7.00;1.80;;;;;;;;;;5061378;28;20457;-82
2021/10/21 10:53:12;;;;;;;6.57;2.00;;;;;;;;;;5062258;28;20483;-79
2021/10/21 10:55:40;;;;;;;5.43;2.20;;;;;;;;;;5047442;28;21017;-82
2021/10/21 10:58:14;;;;;;;6.40;1.83;;;;;;;;;;5065703;28;20476;-80
2021/10/21 11:00:47;;;;;;;9.60;2.90;;;;;;;;;;5067483;28;20446;-81
2021/10/21 11:03:14;;;;;;;7.80;2.17;;;;;;;;;;5055461;28;20900;-82
2021/10/21 11:05:57;;;;;;;7.33;2.70;;;;;;;;;;5057234;28;20461;-86
2021/10/21 11:08:39;;;;;;;9.70;3.17;;;;;;;;;;5060701;28;20433;-81
2021/10/21 11:11:06;;;;;;;8.53;3.30;;;;;;;;;;5092728;28;20957;-80
2021/10/21 11:13:41;;;;;;;6.60;3.17;;;;;;;;;;5126809;28;20487;-85
2021/10/21 11:16:23;;;;;;;8.33;2.97;;;;;;;;;;5128828;28;20481;-82
2021/10/21 11:18:52;;;;;;;7.87;2.17;;;;;;;;;;5108380;28;20454;-84
2021/10/21 11:21:34;;;;;;;5.53;2.87;;;;;;;;;;5103649;28;20444;-83
2021/10/21 11:24:01;;;;;;;6.53;2.80;;;;;;;;;;5102944;28;20488;-83
2021/10/21 11:26:29;;;;;;;6.40;2.03;;;;;;;;;;5103617;28;20953;-83
2021/10/21 11:28:57;;;;;;;8.13;2.60;;;;;;;;;;5096101;28;20445;-82
2021/10/21 11:31:24;;;;;;;5.40;2.40;;;;;;;;;;5107022;28;20474;-82
2021/10/21 11:33:53;;;;;;;6.30;2.80;;;;;;;;;;5107315;28;20480;-81
2021/10/21 11:36:20;;;;;;;7.43;2.00;;;;;;;;;;5110848;28;20487;-82
2021/10/21 11:39:02;;;;;;;4.40;2.17;;;;;;;;;;5103614;27;20457;-86
2021/10/21 11:41:29;;;;;;;9.43;2.53;;;;;;;;;;5121151;27;20936;-82
2021/10/21 11:43:57;;;;;;;8.37;2.30;;;;;;;;;;5102364;28;20458;-81
2021/10/21 11:46:24;;;;;;;8.07;2.20;;;;;;;;;;5102656;28;20454;-87
2021/10/21 11:48:56;;;;;;;5.10;1.70;;;;;;;;;;5110952;28;20533;-81
2021/10/21 11:51:29;;;;;;;6.67;2.30;;;;;;;;;;5110831;28;20434;-80
2021/10/21 11:53:56;;;;;;;4.80;1.80;;;;;;;;;;5108933;27;20485;-81
2021/10/21 11:56:24;;;;;;;5.00;2.40;;;;;;;;;;5128013;27;20493;-81
2021/10/21 11:58:54;;;;;;;5.50;1.83;;;;;;;;;;5105362;28;20521;-83
2021/10/21 12:01:24;;;;;;;5.47;1.87;;;;;;;;;;5094381;27;20629;-88
2021/10/21 12:03:52;;;;;;;6.33;2.37;;;;;;;;;;5089805;28;20480;-80
2021/10/21 12:06:21;;;;;;;11.87;3.47;;;;;;;;;;5100236;28;20451;-86
2021/10/21 12:08:50;;;;;;;4.80;2.47;;;;;;;;;;5106350;27;20461;-81
2021/10/21 12:11:19;;;;;;;5.90;2.27;;;;;;;;;;5114622;28;20397;-84
2021/10/21 12:13:46;;;;;;;5.40;1.90;;;;;;;;;;5112611;28;20478;-84
2021/10/21 12:16:14;;;;;;;3.23;1.83;;;;;;;;;;5100333;28;21110;-85
2021/10/21 12:18:42;;;;;;;4.23;1.70;;;;;;;;;;5100303;28;20430;-83
2021/10/21 12:21:10;;;;;;;6.23;1.70;;;;;;;;;;5106594;27;20904;-85
2021/10/21 12:23:47;;;;;;;4.10;1.87;;;;;;;;;;5119016;27;20574;-84
2021/10/21 12:26:21;;;;;;;5.20;1.93;;;;;;;;;;5118652;27;20445;-84
2021/10/21 12:28:49;;;;;;;7.50;2.87;;;;;;;;;;5110194;27;20948;-82
2021/10/21 12:31:17;;;;;;;7.00;2.20;;;;;;;;;;5099020;28;20434;-83
2021/10/21 12:33:50;;;;;;;6.87;2.30;;;;;;;;;;5099647;28;20713;-84
2021/10/21 12:36:21;;;;;;;6.33;2.90;;;;;;;;;;5109788;28;20475;-84
2021/10/21 12:38:52;;;;;;;6.80;2.30;;;;;;;;;;5107615;28;20860;-87
2021/10/21 12:41:20;;;;;;;4.50;1.70;;;;;;;;;;5110622;28;20438;-87
2021/10/21 12:44:00;;;;;;;3.40;1.60;;;;;;;;;;5110292;28;20438;-84
2021/10/21 12:46:27;;;;;;;3.73;1.80;;;;;;;;;;5091229;28;20461;-85
2021/10/21 12:49:10;;;;;;;1.17;1.07;;;;;;;;;;5095112;27;20464;-85
2021/10/21 12:51:40;;;;;;;4.23;2.00;;;;;;;;;;5104136;28;20455;-85
2021/10/21 12:54:08;;;;;;;1.30;1.00;;;;;;;;;;5110334;28;20470;-83
2021/10/21 12:56:39;;;;;;;2.50;2.00;;;;;;;;;;5115031;27;20539;-86
2021/10/21 12:59:07;;;;;;;4.13;2.17;;;;;;;;;;5108972;28;20854;-85
2021/10/21 13:01:49;;;;;;;3.10;1.87;;;;;;;;;;5101767;27;20458;-83
2021/10/21 13:04:31;;;;;;;3.53;2.43;;;;;;;;;;5097870;27;20458;-82
2021/10/21 13:06:59;;;;;;;6.20;3.97;;;;;;;;;;5103938;28;20454;-83
2021/10/21 13:09:30;;;;;;;4.93;2.23;;;;;;;;;;5110488;28;20515;-83
2021/10/21 13:11:57;;;;;;;4.83;2.63;;;;;;;;;;5117447;27;20453;-81
2021/10/21 13:14:25;;;;;;;5.07;2.17;;;;;;;;;;5131134;27;20458;-84
2021/10/21 13:16:52;;;;;;;2.43;2.17;;;;;;;;;;5114932;27;20491;-85
2021/10/21 13:19:19;;;;;;;7.80;2.47;;;;;;;;;;5099472;28;20435;-82
2021/10/21 13:21:47;;;;;;;3.03;1.80;;;;;;;;;;5109322;28;20809;-84
2021/10/21 13:24:15;;;;;;;8.90;3.23;;;;;;;;;;5115077;27;20474;-81
2021/10/21 13:26:42;;;;;;;5.37;2.20;;;;;;;;;;5108596;27;20459;-86
2021/10/21 13:29:10;;;;;;;2.37;1.70;;;;;;;;;;5130934;27;20429;-84
2021/10/21 13:31:37;;;;;;;3.33;1.80;;;;;;;;;;5112446;27;20459;-87
2021/10/21 13:34:04;;;;;;;2.97;1.87;;;;;;;;;;5098463;27;20481;-83
2021/10/21 13:36:32;;;;;;;2.20;2.00;;;;;;;;;;5101758;27;20737;-83
2021/10/21 13:38:59;;;;;;;3.33;1.83;;;;;;;;;;5122599;27;20453;-85
2021/10/21 13:41:28;;;;;;;5.10;2.13;;;;;;;;;;5131049;27;20460;-82
2021/10/21 13:43:56;;;;;;;3.50;2.03;;;;;;;;;;5128126;27;20478;-86
2021/10/21 13:46:23;;;;;;;4.13;2.03;;;;;;;;;;5123553;27;20461;-82
2021/10/21 13:48:50;;;;;;;2.90;2.23;;;;;;;;;;5108419;27;20452;-84
2021/10/21 13:51:18;;;;;;;2.30;2.10;;;;;;;;;;5104500;27;20460;-85
2021/10/21 13:53:45;;;;;;;3.97;2.00;;;;;;;;;;5120981;27;20510;-81
2021/10/21 13:56:13;;;;;;;6.33;2.33;;;;;;;;;;5098511;28;20485;-83
2021/10/21 13:58:41;;;;;;;3.53;2.00;;;;;;;;;;5104293;28;20862;-80
2021/10/21 14:01:09;;;;;;;6.07;2.10;;;;;;;;;;5109755;28;20435;-84
2021/10/21 14:03:36;;;;;;;3.53;1.80;;;;;;;;;;5105071;27;20469;-82
2021/10/21 14:06:04;;;;;;;3.33;2.20;;;;;;;;;;5105875;27;20450;-81
2021/10/21 14:08:32;;;;;;;9.40;2.27;;;;;;;;;;5123698;27;20439;-81
2021/10/21 14:11:00;;;;;;;7.37;2.33;;;;;;;;;;5110941;28;20474;-82
2021/10/21 14:13:27;;;;;;;4.00;2.10;;;;;;;;;;5105388;27;20466;-85
2021/10/21 14:15:55;;;;;;;2.50;2.20;;;;;;;;;;5125874;27;21056;-86
2021/10/21 14:18:23;;;;;;;2.27;2.07;;;;;;;;;;5098252;28;20525;-84
2021/10/21 14:20:50;;;;;;;3.43;2.60;;;;;;;;;;5098648;27;20974;-82
2021/10/21 14:23:17;;;;;;;4.07;2.40;;;;;;;;;;5125163;27;20484;-83
2021/10/21 14:25:44;;;;;;;3.53;2.00;;;;;;;;;;5130695;27;20438;-80
2021/10/21 14:28:11;;;;;;;7.57;2.83;;;;;;;;;;5110538;27;20476;-81
2021/10/21 14:30:39;;;;;;;3.33;2.37;;;;;;;;;;5118088;27;20454;-81
2021/10/21 14:33:07;;;;;;;3.77;2.33;;;;;;;;;;5093603;28;20565;-87
2021/10/21 14:35:35;;;;;;;3.70;1.93;;;;;;;;;;5098964;28;20567;-80
2021/10/21 14:38:02;;;;;;;3.70;2.10;;;;;;;;;;5098094;28;21019;-81
2021/10/21 14:40:29;;;;;;;5.20;2.40;;;;;;;;;;5127330;28;20449;-85
2021/10/21 14:42:56;;;;;;;6.63;2.10;;;;;;;;;;5118962;28;20561;-80
2021/10/21 14:45:24;;;;;;;4.20;2.23;;;;;;;;;;5107750;28;20454;-84
2021/10/21 14:47:51;;;;;;;4.60;2.07;;;;;;;;;;5100704;28;20438;-83
2021/10/21 14:50:19;;;;;;;5.30;2.63;;;;;;;;;;5097999;28;20518;-86